createdAt,value
2019-05-23T00:01:34.020Z,19.87
2019-05-23T00:05:04.401Z,18.43
2019-05-23T00:08:29.344Z,19.47
2019-05-23T00:11:44.858Z,18.27
2019-05-23T00:15:13.416Z,17.87
2019-05-23T00:18:21.291Z,18.63
2019-05-23T00:21:25.944Z,16.80
2019-05-23T00:24:31.894Z,19.30
2019-05-23T00:27:37.965Z,17.93
2019-05-23T00:30:53.666Z,19.77
2019-05-23T00:33:59.896Z,19.57
2019-05-23T00:37:07.190Z,15.10
2019-05-23T00:40:13.541Z,19.00
2019-05-23T00:43:19.962Z,24.63
2019-05-23T00:46:26.331Z,22.40
2019-05-23T00:49:32.149Z,21.90
2019-05-23T00:52:38.249Z,20.03
2019-05-23T00:55:44.839Z,20.07
2019-05-23T00:58:51.677Z,18.70
2019-05-23T01:01:58.011Z,25.20
2019-05-23T01:05:04.600Z,25.77
2019-05-23T01:08:11.467Z,50.70
2019-05-23T01:11:21.563Z,53.87
2019-05-23T01:14:28.607Z,36.90
2019-05-23T01:17:35.753Z,49.03
2019-05-23T01:20:59.958Z,36.43
2019-05-23T01:24:12.424Z,17.63
2019-05-23T01:27:18.561Z,26.70
2019-05-23T01:30:28.138Z,53.53
2019-05-23T01:33:34.281Z,38.53
2019-05-23T01:36:40.269Z,27.67
2019-05-23T01:39:45.787Z,17.40
2019-05-23T01:42:51.624Z,13.03
2019-05-23T01:45:56.793Z,18.63
2019-05-23T01:49:03.345Z,20.10
2019-05-23T01:52:08.928Z,14.57
2019-05-23T01:55:14.355Z,12.67
2019-05-23T01:58:20.012Z,14.27
2019-05-23T02:01:25.669Z,14.60
2019-05-23T02:04:31.509Z,17.03
2019-05-23T02:07:37.998Z,14.23
2019-05-23T02:10:43.562Z,15.40
2019-05-23T02:13:48.709Z,14.93
2019-05-23T02:16:54.590Z,18.83
2019-05-23T02:20:01.654Z,15.27
2019-05-23T02:23:07.269Z,17.77
2019-05-23T02:26:12.934Z,23.27
2019-05-23T02:29:18.883Z,21.60
2019-05-23T02:32:26.349Z,20.30
2019-05-23T02:35:33.394Z,23.73
2019-05-23T02:39:12.577Z,66.90
2019-05-23T02:42:27.767Z,32.57
2019-05-23T02:45:46.756Z,33.97
2019-05-23T02:48:52.642Z,34.00
2019-05-23T02:52:00.229Z,60.53
2019-05-23T02:55:09.822Z,52.53
2019-05-23T02:58:36.479Z,16.43
2019-05-23T03:02:30.255Z,72.37
2019-05-23T03:05:37.242Z,32.10
2019-05-23T03:08:44.046Z,14.27
2019-05-23T03:11:52.576Z,35.87
2019-05-23T03:15:01.392Z,13.70
2019-05-23T03:18:07.471Z,27.23
2019-05-23T03:21:13.630Z,31.57
2019-05-23T03:24:20.154Z,60.10
2019-05-23T03:27:26.519Z,34.33
2019-05-23T03:30:33.505Z,53.17
2019-05-23T03:33:38.894Z,31.33
2019-05-23T03:36:44.269Z,18.90
2019-05-23T03:39:51.292Z,12.10
2019-05-23T03:42:57.010Z,14.93
2019-05-23T03:46:06.322Z,23.63
2019-05-23T03:49:11.749Z,83.53
2019-05-23T03:52:19.133Z,34.47
2019-05-23T03:55:24.958Z,25.07
2019-05-23T03:58:31.915Z,32.97
2019-05-23T04:01:47.661Z,35.30
2019-05-23T04:04:45.692Z,92.37
2019-05-23T04:07:51.557Z,105.17
2019-05-23T04:10:57.696Z,67.87
2019-05-23T04:14:03.520Z,54.83
2019-05-23T04:17:08.919Z,22.43
2019-05-23T04:20:14.581Z,24.23
2019-05-23T04:23:19.997Z,34.07
2019-05-23T04:26:25.085Z,23.50
2019-05-23T04:29:32.033Z,27.83
2019-05-23T04:32:37.286Z,14.80
2019-05-23T04:35:42.573Z,43.53
2019-05-23T04:38:48.870Z,20.43
2019-05-23T04:41:54.161Z,18.03
2019-05-23T04:44:59.303Z,18.03
2019-05-23T04:48:04.752Z,17.13
2019-05-23T04:51:10.845Z,21.67
2019-05-23T04:54:17.155Z,16.63
2019-05-23T04:57:24.370Z,24.87
2019-05-23T05:00:31.182Z,33.00
2019-05-23T05:03:37.771Z,21.40
2019-05-23T05:06:43.599Z,11.87
2019-05-23T05:09:49.429Z,30.20
2019-05-23T05:12:55.118Z,33.70
2019-05-23T05:16:00.340Z,102.67
2019-05-23T05:19:06.130Z,88.93
2019-05-23T05:22:11.503Z,38.20
2019-05-23T05:25:17.432Z,31.57
2019-05-23T05:28:22.788Z,20.03
2019-05-23T05:31:28.022Z,19.90
2019-05-23T05:34:33.216Z,14.03
2019-05-23T05:37:38.428Z,12.70
2019-05-23T05:40:43.592Z,12.57
2019-05-23T05:43:49.075Z,9.90
2019-05-23T05:46:54.197Z,10.20
2019-05-23T05:50:00.033Z,10.10
2019-05-23T05:53:05.241Z,10.37
2019-05-23T05:56:11.197Z,9.70
2019-05-23T05:59:17.974Z,10.17
2019-05-23T06:02:25.654Z,9.13
2019-05-23T06:05:41.759Z,9.83
2019-05-23T06:08:48.615Z,10.70
2019-05-23T06:11:53.871Z,9.27
2019-05-23T06:15:00.154Z,8.80
2019-05-23T06:18:06.524Z,8.03
2019-05-23T06:21:14.192Z,9.13
2019-05-23T06:24:37.786Z,9.23
2019-05-23T06:27:26.077Z,9.90
2019-05-23T06:30:33.097Z,10.63
2019-05-23T06:33:38.391Z,9.87
2019-05-23T06:36:43.710Z,9.03
2019-05-23T06:39:49.157Z,10.10
2019-05-23T06:42:54.448Z,9.53
2019-05-23T06:45:59.628Z,9.63
2019-05-23T06:49:05.234Z,10.83
2019-05-23T06:52:10.485Z,10.83
2019-05-23T06:55:15.827Z,9.03
2019-05-23T06:58:21.376Z,11.30
2019-05-23T07:01:27.066Z,12.63
2019-05-23T07:04:32.389Z,14.60
2019-05-23T07:07:39.777Z,13.43
2019-05-23T07:10:45.244Z,10.93
2019-05-23T07:13:50.733Z,12.83
2019-05-23T07:16:55.932Z,11.37
2019-05-23T07:20:01.269Z,11.03
2019-05-23T07:23:09.248Z,12.40
2019-05-23T07:26:14.788Z,13.60
2019-05-23T07:29:21.186Z,12.63
2019-05-23T07:32:26.427Z,10.90
2019-05-23T07:35:31.920Z,11.80
2019-05-23T07:38:37.170Z,10.70
2019-05-23T07:41:42.343Z,10.87
2019-05-23T07:44:49.169Z,13.70
2019-05-23T07:47:55.136Z,11.10
2019-05-23T07:51:00.292Z,13.63
2019-05-23T07:54:23.470Z,12.93
2019-05-23T07:57:29.116Z,12.10
2019-05-23T08:00:38.780Z,14.27
2019-05-23T08:03:46.342Z,14.57
2019-05-23T08:06:52.401Z,11.43
2019-05-23T08:09:57.659Z,15.43
2019-05-23T08:13:03.330Z,13.67
2019-05-23T08:16:08.590Z,15.70
2019-05-23T08:19:19.207Z,12.43
2019-05-23T08:22:21.677Z,14.53
2019-05-23T08:25:27.218Z,15.03
2019-05-23T08:28:33.437Z,13.07
2019-05-23T08:31:38.666Z,12.87
2019-05-23T08:34:43.816Z,12.47
2019-05-23T08:37:49.106Z,11.70
2019-05-23T08:40:56.112Z,15.13
2019-05-23T08:44:01.618Z,14.57
2019-05-23T08:47:08.346Z,12.40
2019-05-23T08:50:14.264Z,12.87
2019-05-23T08:53:19.489Z,14.53
2019-05-23T08:56:25.004Z,11.07
2019-05-23T08:59:30.384Z,11.83
2019-05-23T09:02:35.919Z,16.20
2019-05-23T09:05:41.452Z,12.60
2019-05-23T09:08:47.283Z,11.33
2019-05-23T09:11:53.142Z,12.33
2019-05-23T09:14:58.504Z,11.30
2019-05-23T09:18:04.135Z,11.23
2019-05-23T09:21:09.737Z,13.10
2019-05-23T09:24:15.946Z,11.30
2019-05-23T09:27:21.132Z,12.70
2019-05-23T09:30:27.680Z,13.23
2019-05-23T09:33:33.166Z,10.87
2019-05-23T09:36:38.464Z,11.07
2019-05-23T09:39:44.198Z,11.03
2019-05-23T09:42:49.469Z,12.13
2019-05-23T09:45:54.558Z,11.03
2019-05-23T09:48:59.780Z,12.13
2019-05-23T09:52:06.585Z,10.27
2019-05-23T09:55:12.066Z,10.80
2019-05-23T09:58:17.341Z,10.17
2019-05-23T10:01:22.536Z,12.13
2019-05-23T10:04:27.849Z,10.20
2019-05-23T10:07:32.983Z,9.77
2019-05-23T10:10:38.183Z,10.00
2019-05-23T10:13:43.300Z,9.47
2019-05-23T10:16:48.631Z,9.57
2019-05-23T10:19:54.918Z,9.17
2019-05-23T10:23:00.051Z,9.23
2019-05-23T10:26:06.232Z,9.07
2019-05-23T10:29:12.478Z,10.80
2019-05-23T10:32:18.037Z,8.60
2019-05-23T10:35:24.123Z,9.83
2019-05-23T10:38:29.725Z,9.90
2019-05-23T10:41:35.156Z,7.60
2019-05-23T10:44:40.319Z,8.63
2019-05-23T10:47:47.242Z,9.07
2019-05-23T10:50:53.240Z,11.07
2019-05-23T10:53:58.598Z,9.30
2019-05-23T10:57:03.869Z,9.17
2019-05-23T11:00:11.453Z,11.17
2019-05-23T11:03:17.547Z,8.23
2019-05-23T11:06:22.630Z,7.87
2019-05-23T11:09:37.230Z,8.40
2019-05-23T11:12:34.784Z,7.83
2019-05-23T11:15:40.316Z,7.67
2019-05-23T11:18:47.740Z,9.63
2019-05-23T11:21:51.846Z,7.67
2019-05-23T11:24:57.323Z,9.10
2019-05-23T11:28:04.944Z,8.90
2019-05-23T11:31:10.606Z,8.43
2019-05-23T11:34:16.045Z,8.77
2019-05-23T11:37:21.344Z,8.87
2019-05-23T11:40:26.542Z,8.70
2019-05-23T11:43:31.835Z,8.60
2019-05-23T11:46:38.017Z,7.83
2019-05-23T11:49:44.645Z,10.00
2019-05-23T11:52:50.573Z,8.33
2019-05-23T11:55:56.002Z,8.90
2019-05-23T11:59:02.017Z,7.87
2019-05-23T12:02:38.412Z,8.57
2019-05-23T12:05:44.027Z,8.77
2019-05-23T12:08:49.331Z,8.93
2019-05-23T12:11:54.485Z,9.10
2019-05-23T12:14:59.902Z,8.67
2019-05-23T12:18:07.238Z,8.00
2019-05-23T12:21:12.532Z,11.80
2019-05-23T12:24:17.680Z,9.63
2019-05-23T12:27:22.875Z,8.00
2019-05-23T12:30:28.696Z,8.60
2019-05-23T12:33:34.365Z,8.60
2019-05-23T12:36:40.193Z,8.40
2019-05-23T12:39:45.443Z,8.60
2019-05-23T12:42:50.653Z,8.53
2019-05-23T12:45:55.825Z,7.53
2019-05-23T12:49:16.040Z,8.50
2019-05-23T12:52:21.720Z,8.20
2019-05-23T12:55:27.016Z,7.63
2019-05-23T12:58:34.150Z,7.37
2019-05-23T13:01:41.892Z,11.00
2019-05-23T13:04:47.303Z,6.30
2019-05-23T13:07:52.460Z,8.53
2019-05-23T13:10:57.625Z,7.90
2019-05-23T13:14:02.858Z,6.43
2019-05-23T13:17:07.930Z,6.63
2019-05-23T13:20:13.482Z,7.03
2019-05-23T13:23:21.150Z,8.00
2019-05-23T13:26:25.621Z,6.87
2019-05-23T13:29:31.059Z,7.83
2019-05-23T13:32:36.226Z,7.47
2019-05-23T13:35:42.030Z,7.27
2019-05-23T13:38:47.807Z,6.73
2019-05-23T13:41:53.137Z,6.67
2019-05-23T13:44:58.952Z,6.13
2019-05-23T13:48:04.691Z,7.00
2019-05-23T13:51:09.835Z,7.73
2019-05-23T13:54:14.995Z,6.40
2019-05-23T13:57:20.317Z,5.70
2019-05-23T14:00:27.768Z,7.77
2019-05-23T14:03:32.925Z,5.43
2019-05-23T14:06:40.594Z,8.20
2019-05-23T14:09:45.887Z,5.23
2019-05-23T14:12:52.279Z,7.33
2019-05-23T14:15:57.431Z,6.07
2019-05-23T14:19:03.162Z,6.03
2019-05-23T14:22:08.455Z,9.87
2019-05-23T14:25:14.347Z,6.13
2019-05-23T14:28:20.537Z,7.10
2019-05-23T14:31:25.960Z,7.10
2019-05-23T14:34:31.693Z,5.50
2019-05-23T14:37:42.785Z,10.50
2019-05-23T14:40:49.219Z,5.90
2019-05-23T14:43:54.514Z,7.43
2019-05-23T14:47:18.650Z,4.77
2019-05-23T14:50:58.007Z,4.40
2019-05-23T14:54:17.912Z,6.10
2019-05-23T14:57:23.411Z,7.43
2019-05-23T15:00:29.515Z,5.30
2019-05-23T15:03:35.819Z,5.10
2019-05-23T15:06:41.738Z,5.17
2019-05-23T15:09:47.426Z,5.67
2019-05-23T15:12:52.683Z,5.17
2019-05-23T15:15:57.815Z,7.33
2019-05-23T15:19:03.320Z,5.63
2019-05-23T15:22:08.670Z,4.30
2019-05-23T15:25:14.003Z,5.23
2019-05-23T15:28:19.252Z,5.73
2019-05-23T15:31:25.266Z,5.93
2019-05-23T15:34:30.589Z,5.53
2019-05-23T15:37:35.882Z,4.87
2019-05-23T15:40:41.473Z,7.10
2019-05-23T15:43:46.907Z,5.33
2019-05-23T15:46:52.401Z,5.13
2019-05-23T15:49:59.705Z,6.20
2019-05-23T15:53:25.077Z,6.97
2019-05-23T15:56:46.762Z,6.93
2019-05-23T16:00:12.080Z,6.40
2019-05-23T16:03:26.906Z,4.50
2019-05-23T16:06:33.153Z,5.50
2019-05-23T16:09:38.440Z,4.57
2019-05-23T16:12:43.922Z,4.70
2019-05-23T16:15:50.555Z,4.90
2019-05-23T16:18:55.892Z,4.70
2019-05-23T16:22:01.105Z,4.90
2019-05-23T16:25:06.615Z,5.83
2019-05-23T16:28:12.994Z,6.47
2019-05-23T16:31:19.374Z,5.20
2019-05-23T16:34:24.458Z,6.13
2019-05-23T16:37:29.695Z,4.93
2019-05-23T16:40:34.990Z,5.00
2019-05-23T16:43:40.304Z,4.77
2019-05-23T16:46:45.720Z,5.60
2019-05-23T16:49:51.945Z,5.17
2019-05-23T16:52:57.097Z,5.37
2019-05-23T16:56:07.977Z,5.50
2019-05-23T16:59:21.894Z,5.73
2019-05-23T17:02:48.808Z,5.57
2019-05-23T17:06:13.925Z,4.50
2019-05-23T17:09:31.781Z,4.37
2019-05-23T17:12:47.009Z,6.97
2019-05-23T17:15:58.182Z,5.27
2019-05-23T17:19:19.665Z,4.50
2019-05-23T17:23:02.126Z,5.27
2019-05-23T17:26:12.614Z,5.33
2019-05-23T17:29:29.412Z,4.33
2019-05-23T17:32:35.648Z,4.90
2019-05-23T17:35:41.017Z,7.00
2019-05-23T17:38:46.514Z,5.37
2019-05-23T17:41:51.905Z,4.87
2019-05-23T17:44:57.160Z,5.33
2019-05-23T17:48:02.434Z,7.93
2019-05-23T17:51:07.672Z,4.17
2019-05-23T17:54:13.322Z,4.90
2019-05-23T17:57:18.534Z,5.37
2019-05-23T18:00:27.229Z,5.17
2019-05-23T18:03:32.938Z,6.00
2019-05-23T18:06:38.673Z,6.23
2019-05-23T18:09:43.815Z,5.53
2019-05-23T18:12:49.346Z,4.47
2019-05-23T18:15:55.519Z,5.33
2019-05-23T18:19:00.919Z,13.33
2019-05-23T18:22:08.451Z,5.97
2019-05-23T18:25:15.497Z,5.77
2019-05-23T18:28:22.827Z,5.00
2019-05-23T18:31:29.613Z,6.20
2019-05-23T18:34:35.690Z,8.53
2019-05-23T18:37:41.868Z,7.73
2019-05-23T18:41:01.526Z,7.30
2019-05-23T18:43:55.124Z,9.37
2019-05-23T18:47:02.393Z,7.23
2019-05-23T18:50:09.799Z,6.77
2019-05-23T18:53:15.682Z,8.57
2019-05-23T18:56:21.054Z,7.70
2019-05-23T18:59:27.252Z,6.47
2019-05-23T19:02:32.558Z,6.77
2019-05-23T19:05:37.917Z,9.00
2019-05-23T19:08:43.063Z,6.30
2019-05-23T19:11:48.398Z,6.87
2019-05-23T19:14:53.595Z,7.30
2019-05-23T19:17:58.737Z,7.43
2019-05-23T19:21:04.125Z,7.63
2019-05-23T19:24:09.395Z,8.03
2019-05-23T19:27:15.555Z,6.30
2019-05-23T19:30:21.383Z,10.23
2019-05-23T19:33:27.211Z,6.90
2019-05-23T19:36:32.754Z,6.97
2019-05-23T19:39:39.435Z,6.57
2019-05-23T19:42:44.615Z,7.20
2019-05-23T19:45:49.803Z,8.07
2019-05-23T19:48:57.448Z,6.70
2019-05-23T19:52:03.416Z,9.73
2019-05-23T19:55:09.123Z,7.10
2019-05-23T19:58:14.809Z,7.73
2019-05-23T20:01:20.616Z,7.57
2019-05-23T20:04:31.288Z,7.47
2019-05-23T20:07:37.290Z,7.57
2019-05-23T20:10:45.168Z,8.60
2019-05-23T20:13:50.419Z,8.00
2019-05-23T20:16:55.673Z,8.20
2019-05-23T20:20:00.842Z,9.27
2019-05-23T20:23:07.995Z,11.13
2019-05-23T20:26:13.144Z,12.70
2019-05-23T20:29:18.416Z,10.53
2019-05-23T20:32:23.616Z,13.23
2019-05-23T20:35:28.882Z,12.97
2019-05-23T20:38:34.414Z,10.03
2019-05-23T20:41:39.960Z,8.73
2019-05-23T20:44:45.071Z,9.00
2019-05-23T20:47:50.396Z,10.10
2019-05-23T20:50:55.669Z,6.93
2019-05-23T20:54:00.815Z,7.30
2019-05-23T20:57:06.099Z,8.40
2019-05-23T21:00:13.092Z,7.23
2019-05-23T21:03:18.841Z,7.77
2019-05-23T21:06:23.994Z,9.00
2019-05-23T21:09:29.140Z,8.70
2019-05-23T21:12:34.277Z,8.83
2019-05-23T21:15:41.009Z,9.20
2019-05-23T21:18:49.724Z,11.93
2019-05-23T21:21:53.235Z,9.80
2019-05-23T21:24:58.374Z,8.80
2019-05-23T21:28:03.598Z,9.03
2019-05-23T21:31:14.238Z,9.37
2019-05-23T21:34:22.071Z,10.87
2019-05-23T21:37:26.269Z,9.20
2019-05-23T21:40:53.099Z,8.17
2019-05-23T21:43:59.210Z,8.87
2019-05-23T21:47:04.372Z,9.77
2019-05-23T21:50:09.725Z,8.17
2019-05-23T21:53:14.965Z,8.47
2019-05-23T21:56:20.164Z,8.50
2019-05-23T21:59:25.294Z,10.17
2019-05-23T22:02:33.391Z,8.60
2019-05-23T22:05:38.520Z,8.93
2019-05-23T22:08:44.168Z,10.53
2019-05-23T22:11:49.992Z,9.50
2019-05-23T22:14:55.611Z,9.87
2019-05-23T22:18:00.767Z,12.40
2019-05-23T22:21:06.070Z,11.13
2019-05-23T22:24:11.939Z,8.90
2019-05-23T22:27:17.265Z,9.77
2019-05-23T22:30:22.738Z,7.93
2019-05-23T22:33:30.430Z,7.80
2019-05-23T22:36:35.631Z,10.03
2019-05-23T22:39:40.806Z,7.87
2019-05-23T22:42:46.010Z,7.60
2019-05-23T22:45:51.146Z,8.60
2019-05-23T22:48:56.316Z,11.00
2019-05-23T22:52:01.478Z,10.57
2019-05-23T22:55:07.923Z,9.03
2019-05-23T22:58:13.123Z,9.93
2019-05-23T23:01:18.741Z,9.37
2019-05-23T23:04:26.455Z,11.07
2019-05-23T23:07:31.706Z,8.63
2019-05-23T23:10:37.098Z,9.90
2019-05-23T23:13:42.442Z,8.17
2019-05-23T23:16:47.882Z,9.17
2019-05-23T23:19:53.417Z,8.33
2019-05-23T23:22:58.549Z,9.27
2019-05-23T23:26:03.706Z,9.40
2019-05-23T23:29:09.021Z,10.83
2019-05-23T23:32:14.219Z,9.37
2019-05-23T23:35:19.447Z,10.10
2019-05-23T23:38:24.700Z,11.63
2019-05-23T23:41:29.837Z,10.27
2019-05-23T23:44:34.200Z,11.13
2019-05-23T23:47:57.250Z,10.40
2019-05-23T23:51:20.381Z,12.03
2019-05-23T23:54:43.439Z,9.97
2019-05-23T23:57:59.704Z,9.70
